Portada
METAR-TAF:

METAR-TAF

Aeroports :

Auburn/Lewiston Municipal Airport

Auburn-Lewiston, Maine, Estats Units d'Amèrica

latitud: 44-03N, longitud: 070-17W, altitud: 88 m

Observació

L'informe es va fer fa 39 minuts, a les 18:56 UTC
Vent 6 kt del Est/Sud-Est
Temperatura 15°C
Humitat 94%
Pressió 1003 hPa
Visibilitat: 6.4 km
Cel cobert a una alçada de 800 ft
pluja, boirina

METAR: KLEW 201856Z AUTO 12006KT 4SM -RA BR OVC008 15/14 A2963 RMK AO2 CIG 004V010 SLP047 T01500144 PNO $

Hora: 15:35 (19:35 UTC)


TAF: manca

Observacions i pronòstics meteorològics de més de 4000 aeroports (METAR i TAF).

Les estacions disponibles són els punts grocs i vermells al mapa.

Posi el ratolí al punt desitjat per veure el nom de l'estació.

Feu clic per veure les observacions i els pronòstics meteorològics.

Per canviar el mapa: feu clic els botons verds amb una creu de color negre per apropar; al botó verd amb un guió per allunyar la imatge; o en les fletxes verdes per a mapes adjacents.


METAR-TAF: